createdAt,value
2022-08-07T00:02:40.416Z,18.64
2022-08-07T00:05:01.223Z,18.51
2022-08-07T00:07:39.242Z,18.86
2022-08-07T00:10:26.482Z,18.97
2022-08-07T00:12:59.790Z,18.47
2022-08-07T00:15:38.606Z,18.88
2022-08-07T00:18:19.647Z,18.93
2022-08-07T00:20:49.470Z,18.92
2022-08-07T00:23:17.632Z,18.89
2022-08-07T00:25:45.766Z,18.90
2022-08-07T00:28:21.962Z,18.86
2022-08-07T00:30:49.836Z,18.92
2022-08-07T00:33:17.640Z,18.86
2022-08-07T00:35:49.665Z,18.83
2022-08-07T00:38:31.219Z,18.75
2022-08-07T00:40:59.594Z,18.80
2022-08-07T00:44:00.315Z,18.80
2022-08-07T00:46:16.711Z,18.66
2022-08-07T00:48:45.578Z,18.73
2022-08-07T00:51:18.073Z,18.66
2022-08-07T00:53:50.476Z,18.66
2022-08-07T00:56:23.362Z,18.61
2022-08-07T00:58:59.931Z,18.66
2022-08-07T01:01:57.029Z,18.54
2022-08-07T01:04:25.826Z,18.44
2022-08-07T01:06:58.065Z,18.54
2022-08-07T01:10:04.492Z,18.52
2022-08-07T01:12:28.708Z,18.51
2022-08-07T01:15:03.964Z,18.31
2022-08-07T01:17:34.077Z,18.22
2022-08-07T01:20:06.546Z,18.19
2022-08-07T01:22:37.611Z,18.22
2022-08-07T01:25:54.302Z,17.88
2022-08-07T01:28:03.898Z,18.12
2022-08-07T01:30:33.395Z,18.10
2022-08-07T01:33:02.284Z,18.23
2022-08-07T01:35:53.747Z,18.14
2022-08-07T01:38:24.926Z,18.24
2022-08-07T01:40:55.316Z,18.20
2022-08-07T01:43:25.883Z,18.16
2022-08-07T01:45:55.090Z,18.17
2022-08-07T01:48:30.336Z,18.09
2022-08-07T01:52:00.932Z,17.70
2022-08-07T01:54:12.659Z,17.93
2022-08-07T01:56:52.843Z,18.02
2022-08-07T01:59:31.101Z,18.07
2022-08-07T02:02:10.327Z,17.94
2022-08-07T02:04:52.519Z,17.97
2022-08-07T02:07:45.206Z,17.90
2022-08-07T02:10:18.500Z,17.78
2022-08-07T02:12:50.281Z,17.79
2022-08-07T02:15:22.608Z,17.84
2022-08-07T02:17:52.626Z,17.80
2022-08-07T02:20:24.465Z,17.73
2022-08-07T02:22:57.580Z,17.74
2022-08-07T02:26:10.589Z,17.77
2022-08-07T02:28:25.424Z,17.76
2022-08-07T02:30:56.049Z,17.71
2022-08-07T02:33:33.015Z,17.69
2022-08-07T02:36:29.913Z,17.69
2022-08-07T02:39:15.949Z,17.67
2022-08-07T02:41:54.264Z,17.65
2022-08-07T02:44:27.649Z,17.63
2022-08-07T02:47:06.255Z,17.52
2022-08-07T02:49:59.028Z,17.56
2022-08-07T02:52:32.051Z,17.57
2022-08-07T02:55:04.014Z,17.53
2022-08-07T02:57:35.971Z,17.53
2022-08-07T03:00:11.181Z,17.44
2022-08-07T03:02:54.268Z,17.42
2022-08-07T03:05:24.632Z,17.34
2022-08-07T03:08:07.700Z,17.38
2022-08-07T03:10:41.023Z,17.36
2022-08-07T03:13:19.595Z,17.05
2022-08-07T03:15:58.490Z,17.23
2022-08-07T03:18:35.048Z,17.23
2022-08-07T03:21:05.150Z,17.21
2022-08-07T03:24:17.850Z,17.20
2022-08-07T03:26:30.878Z,17.21
2022-08-07T03:29:02.415Z,17.09
2022-08-07T03:31:43.255Z,17.09
2022-08-07T03:34:18.453Z,17.09
2022-08-07T03:36:52.904Z,17.06
2022-08-07T03:39:45.777Z,17.08
2022-08-07T03:42:10.220Z,17.08
2022-08-07T03:44:40.004Z,17.02
2022-08-07T03:47:11.509Z,17.04
2022-08-07T03:49:52.058Z,16.99
2022-08-07T03:52:26.695Z,16.90
2022-08-07T03:54:57.343Z,17.02
2022-08-07T03:58:32.394Z,16.91
2022-08-07T04:00:29.180Z,16.94
2022-08-07T04:02:59.312Z,16.88
2022-08-07T04:05:39.213Z,16.86
2022-08-07T04:08:11.303Z,16.81
2022-08-07T04:10:39.459Z,16.65
2022-08-07T04:13:15.223Z,16.78
2022-08-07T04:15:45.848Z,16.77
2022-08-07T04:18:57.257Z,16.74
2022-08-07T04:21:07.201Z,16.74
2022-08-07T04:23:43.906Z,16.77
2022-08-07T04:26:23.607Z,16.72
2022-08-07T04:28:56.333Z,16.69
2022-08-07T04:32:02.967Z,16.63
2022-08-07T04:34:16.726Z,16.69
2022-08-07T04:36:45.212Z,16.67
2022-08-07T04:39:13.300Z,16.61
2022-08-07T04:41:50.464Z,16.68
2022-08-07T04:44:19.263Z,16.63
2022-08-07T04:47:03.974Z,16.66
2022-08-07T04:49:57.961Z,16.69
2022-08-07T04:52:51.046Z,16.70
2022-08-07T04:58:12.100Z,16.74
2022-08-07T04:58:43.131Z,16.87
2022-08-07T05:01:18.088Z,16.99
2022-08-07T05:04:06.994Z,17.14
2022-08-07T05:06:43.738Z,17.31
2022-08-07T05:09:27.987Z,17.32
2022-08-07T05:12:26.554Z,17.40
2022-08-07T05:15:21.530Z,17.83
2022-08-07T05:17:56.662Z,17.96
2022-08-07T05:20:32.113Z,18.07
2022-08-07T05:23:05.263Z,18.30
2022-08-07T05:26:13.869Z,18.89
2022-08-07T05:28:34.765Z,18.61
2022-08-07T05:31:03.657Z,18.51
2022-08-07T05:33:35.593Z,19.13
2022-08-07T05:36:12.311Z,18.79
2022-08-07T05:39:00.839Z,18.94
2022-08-07T05:42:02.207Z,19.29
2022-08-07T05:44:29.331Z,18.67
2022-08-07T05:47:00.256Z,18.70
2022-08-07T05:49:40.402Z,19.36
2022-08-07T05:52:11.704Z,19.49
2022-08-07T05:54:53.472Z,18.77
2022-08-07T05:57:26.708Z,18.88
2022-08-07T06:00:00.261Z,18.51
2022-08-07T06:02:34.044Z,17.77
2022-08-07T06:05:06.274Z,17.29
2022-08-07T06:08:13.499Z,17.78
2022-08-07T06:10:24.863Z,17.62
2022-08-07T06:12:52.675Z,17.78
2022-08-07T06:15:21.495Z,17.61
2022-08-07T06:17:53.458Z,17.74
2022-08-07T06:20:25.235Z,17.78
2022-08-07T06:23:24.813Z,17.83
2022-08-07T06:25:54.675Z,18.30
2022-08-07T06:28:27.371Z,17.76
2022-08-07T06:30:55.716Z,17.89
2022-08-07T06:33:25.383Z,17.97
2022-08-07T06:36:12.901Z,18.09
2022-08-07T06:38:51.225Z,18.31
2022-08-07T06:41:58.753Z,18.14
2022-08-07T06:44:14.119Z,18.02
2022-08-07T06:46:44.211Z,17.96
2022-08-07T06:49:21.809Z,18.27
2022-08-07T06:51:50.419Z,18.00
2022-08-07T06:55:32.641Z,18.29
2022-08-07T06:57:10.155Z,17.95
2022-08-07T07:00:14.775Z,17.88
2022-08-07T07:02:54.529Z,18.12
2022-08-07T07:06:05.453Z,18.46
2022-08-07T07:08:06.920Z,18.72
2022-08-07T07:10:39.525Z,18.91
2022-08-07T07:13:41.611Z,18.63
2022-08-07T07:16:21.449Z,18.43
2022-08-07T07:18:54.162Z,18.63
2022-08-07T07:21:26.973Z,18.80
2022-08-07T07:24:12.518Z,18.53
2022-08-07T07:26:49.737Z,18.87
2022-08-07T07:29:56.879Z,18.71
2022-08-07T07:32:14.606Z,18.80
2022-08-07T07:34:46.413Z,18.96
2022-08-07T07:37:45.148Z,18.85
2022-08-07T07:40:10.423Z,19.34
2022-08-07T07:42:51.106Z,19.28
2022-08-07T07:46:38.539Z,19.44
2022-08-07T07:48:34.828Z,19.82
2022-08-07T07:51:07.732Z,19.90
2022-08-07T07:53:51.437Z,19.39
2022-08-07T07:56:30.491Z,19.45
2022-08-07T07:59:02.628Z,20.12
2022-08-07T08:02:01.610Z,19.78
2022-08-07T08:04:25.786Z,19.98
2022-08-07T08:06:56.198Z,20.05
2022-08-07T08:09:29.201Z,20.00
2022-08-07T08:12:02.594Z,20.62
2022-08-07T08:14:34.404Z,20.09
2022-08-07T08:17:55.385Z,20.22
2022-08-07T08:20:16.020Z,20.96
2022-08-07T08:23:08.521Z,20.21
2022-08-07T08:26:02.177Z,20.60
2022-08-07T08:28:39.168Z,20.80
2022-08-07T08:31:22.850Z,20.74
2022-08-07T08:34:07.141Z,21.27
2022-08-07T08:36:37.464Z,20.92
2022-08-07T08:39:09.845Z,21.07
2022-08-07T08:41:58.220Z,21.54
2022-08-07T08:44:33.235Z,20.97
2022-08-07T08:47:10.050Z,20.77
2022-08-07T08:50:02.466Z,21.46
2022-08-07T08:52:40.909Z,21.52
2022-08-07T08:55:53.902Z,21.42
2022-08-07T08:58:24.931Z,20.96
2022-08-07T09:01:14.548Z,21.13
2022-08-07T09:03:55.474Z,22.25
2022-08-07T09:06:40.497Z,21.18
2022-08-07T09:09:29.852Z,21.69
2022-08-07T09:12:20.111Z,21.02
2022-08-07T09:16:22.440Z,21.01
2022-08-07T09:18:08.759Z,21.63
2022-08-07T09:20:58.572Z,21.47
2022-08-07T09:24:33.016Z,21.14
2022-08-07T09:26:34.505Z,21.41
2022-08-07T09:30:01.099Z,22.14
2022-08-07T09:32:17.192Z,21.82
2022-08-07T09:34:56.156Z,21.34
2022-08-07T09:37:48.283Z,21.44
2022-08-07T09:40:27.547Z,21.73
2022-08-07T09:43:08.929Z,21.78
2022-08-07T09:47:25.693Z,21.90
2022-08-07T09:48:56.222Z,21.51
2022-08-07T09:52:16.189Z,22.09
2022-08-07T09:54:42.185Z,21.90
2022-08-07T09:57:49.901Z,21.78
2022-08-07T10:00:29.902Z,22.10
2022-08-07T10:04:04.010Z,21.75
2022-08-07T10:06:38.167Z,21.74
2022-08-07T10:09:23.695Z,21.83
2022-08-07T10:12:21.773Z,22.42
2022-08-07T10:15:51.950Z,22.53
2022-08-07T10:18:47.169Z,22.09
2022-08-07T10:22:14.841Z,22.26
2022-08-07T10:25:01.449Z,22.54
2022-08-07T10:28:12.528Z,22.27
2022-08-07T10:30:59.270Z,22.39
2022-08-07T10:34:15.738Z,22.59
2022-08-07T10:37:03.928Z,22.79
2022-08-07T10:40:03.363Z,22.48
2022-08-07T10:42:37.827Z,22.25
2022-08-07T10:45:19.520Z,22.53
2022-08-07T10:48:17.524Z,22.20
2022-08-07T10:50:50.648Z,22.49
2022-08-07T10:53:44.222Z,22.75
2022-08-07T10:56:44.963Z,23.11
2022-08-07T10:59:30.326Z,22.79
2022-08-07T11:02:12.419Z,23.14
2022-08-07T11:05:10.505Z,22.92
2022-08-07T11:08:00.338Z,23.29
2022-08-07T11:10:38.843Z,22.82
2022-08-07T11:13:16.907Z,22.86
2022-08-07T11:16:07.401Z,23.39
2022-08-07T11:18:43.897Z,23.28
2022-08-07T11:21:28.727Z,22.70
2022-08-07T11:24:05.479Z,23.39
2022-08-07T11:26:48.290Z,23.12
2022-08-07T11:29:42.053Z,23.37
2022-08-07T11:32:25.482Z,23.31
2022-08-07T11:34:59.461Z,23.72
2022-08-07T11:38:10.419Z,24.03
2022-08-07T11:40:42.567Z,23.56
2022-08-07T11:43:41.576Z,23.46
2022-08-07T11:46:30.742Z,23.35
2022-08-07T11:49:50.885Z,23.89
2022-08-07T11:52:35.711Z,23.89
2022-08-07T11:55:18.965Z,23.57
2022-08-07T11:58:16.193Z,23.37
2022-08-07T12:01:00.238Z,23.73
2022-08-07T12:03:59.169Z,23.98
2022-08-07T12:06:39.808Z,23.74
2022-08-07T12:09:16.792Z,23.91
2022-08-07T12:12:10.913Z,23.58
2022-08-07T12:14:55.391Z,23.92
2022-08-07T12:17:35.390Z,23.57
2022-08-07T12:20:18.650Z,23.51
2022-08-07T12:23:14.317Z,23.89
2022-08-07T12:26:22.450Z,23.60
2022-08-07T12:28:53.316Z,23.67
2022-08-07T12:32:01.441Z,23.84
2022-08-07T12:34:21.059Z,23.61
2022-08-07T12:36:54.370Z,23.72
2022-08-07T12:39:43.196Z,23.85
2022-08-07T12:42:27.231Z,23.84
2022-08-07T12:44:58.950Z,23.76
2022-08-07T12:47:37.927Z,24.04
2022-08-07T12:50:38.632Z,23.93
2022-08-07T12:53:18.032Z,23.62
2022-08-07T12:56:03.638Z,24.09
2022-08-07T12:58:39.510Z,24.12
2022-08-07T13:01:16.701Z,24.36
2022-08-07T13:04:31.655Z,24.33
2022-08-07T13:08:12.199Z,24.59
2022-08-07T13:10:44.025Z,24.17
2022-08-07T13:13:47.464Z,24.62
2022-08-07T13:16:28.234Z,24.56
2022-08-07T13:19:04.052Z,24.60
2022-08-07T13:21:50.359Z,24.08
2022-08-07T13:24:29.374Z,24.27
2022-08-07T13:27:05.683Z,24.21
2022-08-07T13:29:42.380Z,24.25
2022-08-07T13:32:32.275Z,24.79
2022-08-07T13:35:08.754Z,24.35
2022-08-07T13:37:55.416Z,24.01
2022-08-07T13:40:36.633Z,24.00
2022-08-07T13:43:15.404Z,24.29
2022-08-07T13:46:11.182Z,24.18
2022-08-07T13:48:40.707Z,24.21
2022-08-07T13:51:20.465Z,23.89
2022-08-07T13:54:02.035Z,24.50
2022-08-07T13:56:35.051Z,24.55
2022-08-07T13:59:12.337Z,24.26
2022-08-07T14:01:51.175Z,24.18
2022-08-07T14:04:38.027Z,24.42
2022-08-07T14:07:16.867Z,24.32
2022-08-07T14:10:17.822Z,24.39
2022-08-07T14:12:41.805Z,24.40
2022-08-07T14:15:19.045Z,24.31
2022-08-07T14:18:27.035Z,24.34
2022-08-07T14:20:54.680Z,24.34
2022-08-07T14:23:58.780Z,24.68
2022-08-07T14:26:28.264Z,24.82
2022-08-07T14:29:08.849Z,24.61
2022-08-07T14:31:56.627Z,24.71
2022-08-07T14:34:30.303Z,24.78
2022-08-07T14:40:15.884Z,24.86
2022-08-07T14:43:54.816Z,24.73
2022-08-07T14:45:46.346Z,24.68
2022-08-07T14:48:19.973Z,24.56
2022-08-07T14:50:51.172Z,24.71
2022-08-07T14:54:03.487Z,24.42
2022-08-07T14:56:14.058Z,24.34
2022-08-07T14:58:44.868Z,24.53
2022-08-07T15:04:05.964Z,24.77
2022-08-07T15:06:35.809Z,24.82
2022-08-07T15:09:57.515Z,24.99
2022-08-07T15:18:02.401Z,24.77
2022-08-07T15:20:54.709Z,24.91
2022-08-07T15:26:22.356Z,24.97
2022-08-07T15:28:59.446Z,25.04
2022-08-07T15:31:57.862Z,25.25
2022-08-07T15:34:26.274Z,25.08
2022-08-07T15:37:03.024Z,24.87
2022-08-07T15:39:57.869Z,24.83
2022-08-07T15:42:51.573Z,25.04
2022-08-07T15:45:55.481Z,25.09
2022-08-07T15:51:16.847Z,25.24
2022-08-07T15:53:53.300Z,24.99
2022-08-07T15:56:25.386Z,24.97
2022-08-07T15:58:59.235Z,25.02
2022-08-07T16:01:38.475Z,25.01
2022-08-07T16:04:14.767Z,24.97
2022-08-07T16:06:49.099Z,24.84
2022-08-07T16:09:23.236Z,24.97
2022-08-07T16:12:02.986Z,25.07
2022-08-07T16:14:59.073Z,25.01
2022-08-07T16:18:02.610Z,24.97
2022-08-07T16:20:56.804Z,25.02
2022-08-07T16:23:58.672Z,24.88
2022-08-07T16:26:59.272Z,24.80
2022-08-07T16:30:11.303Z,24.96
2022-08-07T16:32:46.312Z,24.97
2022-08-07T16:35:51.751Z,24.84
2022-08-07T16:38:57.299Z,24.68
2022-08-07T16:41:41.458Z,24.76
2022-08-07T16:45:15.501Z,24.87
2022-08-07T16:48:02.646Z,24.83
2022-08-07T16:51:20.484Z,24.81
2022-08-07T16:54:06.012Z,24.83
2022-08-07T16:56:53.517Z,24.80
2022-08-07T16:59:46.992Z,24.73
2022-08-07T17:02:51.149Z,24.69
2022-08-07T17:06:01.975Z,24.83
2022-08-07T17:09:08.848Z,24.78
2022-08-07T17:12:04.278Z,24.67
2022-08-07T17:14:33.488Z,24.58
2022-08-07T17:17:05.865Z,24.44
2022-08-07T17:20:01.979Z,24.30
2022-08-07T17:22:37.846Z,24.40
2022-08-07T17:25:15.106Z,24.46
2022-08-07T17:27:57.916Z,24.47
2022-08-07T17:30:29.488Z,24.32
2022-08-07T17:33:39.146Z,24.29
2022-08-07T17:36:03.731Z,24.26
2022-08-07T17:38:37.441Z,24.11
2022-08-07T17:42:03.755Z,24.08
2022-08-07T17:44:06.626Z,23.95
2022-08-07T17:46:44.087Z,23.86
2022-08-07T17:49:23.208Z,23.85
2022-08-07T17:52:01.281Z,23.81
2022-08-07T17:54:53.820Z,23.83
2022-08-07T17:57:56.077Z,23.74
2022-08-07T18:00:33.122Z,23.62
2022-08-07T18:03:18.246Z,23.67
2022-08-07T18:06:03.523Z,23.63
2022-08-07T18:09:01.139Z,23.72
2022-08-07T18:12:06.676Z,23.39
2022-08-07T18:14:28.911Z,23.52
2022-08-07T18:17:01.151Z,23.61
2022-08-07T18:21:11.871Z,23.30
2022-08-07T18:22:34.149Z,23.25
2022-08-07T18:25:19.041Z,23.07
2022-08-07T18:28:35.760Z,23.22
2022-08-07T18:31:08.513Z,23.33
2022-08-07T18:33:55.057Z,23.26
2022-08-07T18:36:33.752Z,23.25
2022-08-07T18:40:06.961Z,23.11
2022-08-07T18:42:13.382Z,22.82
2022-08-07T18:45:44.541Z,23.11
2022-08-07T18:48:00.945Z,23.08
2022-08-07T18:50:46.090Z,23.03
2022-08-07T18:53:39.231Z,22.86
2022-08-07T18:56:14.808Z,22.93
2022-08-07T18:58:56.882Z,22.91
2022-08-07T19:02:31.729Z,22.81
2022-08-07T19:04:54.911Z,22.82
2022-08-07T19:07:34.596Z,22.76
2022-08-07T19:10:12.075Z,22.75
2022-08-07T19:12:58.107Z,22.39
2022-08-07T19:16:04.215Z,22.60
2022-08-07T19:18:37.244Z,22.62
2022-08-07T19:21:47.692Z,22.57
2022-08-07T19:24:10.653Z,22.54
2022-08-07T19:27:16.901Z,22.51
2022-08-07T19:31:04.231Z,22.48
2022-08-07T19:32:42.322Z,22.43
2022-08-07T19:35:19.242Z,22.41
2022-08-07T19:37:56.886Z,22.40
2022-08-07T19:40:31.532Z,22.32
2022-08-07T19:43:03.018Z,22.34
2022-08-07T19:46:07.218Z,22.34
2022-08-07T19:48:42.982Z,21.74
2022-08-07T19:51:50.517Z,22.05
2022-08-07T19:54:31.664Z,22.16
2022-08-07T19:58:01.028Z,22.19
2022-08-07T19:59:53.396Z,22.13
2022-08-07T20:02:31.216Z,22.06
2022-08-07T20:05:07.663Z,22.07
2022-08-07T20:07:47.027Z,21.74
2022-08-07T20:10:36.245Z,21.81
2022-08-07T20:13:23.917Z,21.87
2022-08-07T20:15:58.202Z,21.90
2022-08-07T20:18:33.406Z,21.81
2022-08-07T20:21:14.483Z,21.85
2022-08-07T20:23:58.046Z,21.85
2022-08-07T20:26:38.777Z,21.78
2022-08-07T20:29:48.401Z,21.77
2022-08-07T20:32:11.581Z,21.68
2022-08-07T20:34:54.137Z,21.65
2022-08-07T20:37:30.010Z,21.69
2022-08-07T20:40:05.398Z,21.68
2022-08-07T20:42:56.398Z,21.59
2022-08-07T20:45:33.721Z,21.57
2022-08-07T20:48:25.936Z,21.55
2022-08-07T20:51:00.922Z,21.56
2022-08-07T20:54:03.534Z,21.50
2022-08-07T20:56:26.042Z,21.50
2022-08-07T20:58:58.692Z,21.47
2022-08-07T21:01:36.313Z,21.38
2022-08-07T21:04:21.750Z,21.38
2022-08-07T21:06:55.003Z,21.33
2022-08-07T21:09:29.933Z,21.33
2022-08-07T21:12:28.870Z,21.31
2022-08-07T21:14:58.179Z,21.26
2022-08-07T21:18:06.117Z,21.26
2022-08-07T21:20:29.820Z,21.23
2022-08-07T21:23:08.072Z,21.16
2022-08-07T21:25:56.129Z,21.15
2022-08-07T21:28:48.888Z,21.10
2022-08-07T21:31:49.901Z,21.04
2022-08-07T21:34:26.667Z,21.07
2022-08-07T21:37:03.638Z,20.96
2022-08-07T21:39:45.378Z,20.94
2022-08-07T21:42:42.857Z,20.89
2022-08-07T21:45:24.382Z,20.84
2022-08-07T21:48:27.671Z,20.78
2022-08-07T21:51:03.276Z,20.78
2022-08-07T21:53:37.038Z,20.79
2022-08-07T21:56:36.062Z,20.72
2022-08-07T21:59:09.270Z,20.67
2022-08-07T22:02:07.462Z,20.67
2022-08-07T22:04:38.024Z,20.62
2022-08-07T22:07:13.129Z,20.57
2022-08-07T22:09:53.641Z,20.54
2022-08-07T22:12:31.772Z,20.50
2022-08-07T22:16:42.409Z,20.48
2022-08-07T22:17:58.138Z,20.48
2022-08-07T22:20:35.435Z,20.44
2022-08-07T22:23:16.213Z,20.35
2022-08-07T22:25:52.271Z,20.30
2022-08-07T22:28:31.254Z,20.32
2022-08-07T22:31:45.537Z,20.29
2022-08-07T22:34:12.880Z,20.28
2022-08-07T22:36:48.692Z,20.23
2022-08-07T22:39:31.576Z,20.20
2022-08-07T22:42:53.710Z,20.19
2022-08-07T22:46:40.499Z,20.15
2022-08-07T22:48:31.712Z,20.11
2022-08-07T22:51:16.003Z,20.02
2022-08-07T22:54:06.951Z,20.04
2022-08-07T22:56:48.538Z,20.02
2022-08-07T22:59:50.829Z,19.99
2022-08-07T23:02:48.188Z,19.92
2022-08-07T23:06:09.904Z,19.90
2022-08-07T23:08:58.545Z,19.84
2022-08-07T23:11:59.025Z,19.82
2022-08-07T23:14:48.409Z,19.76
2022-08-07T23:17:41.717Z,19.75
2022-08-07T23:20:40.719Z,19.80
2022-08-07T23:24:05.112Z,19.68
2022-08-07T23:26:50.608Z,19.71
2022-08-07T23:30:39.407Z,19.57
2022-08-07T23:34:33.726Z,19.59
2022-08-07T23:36:17.074Z,19.58
2022-08-07T23:39:00.196Z,19.52
2022-08-07T23:42:04.050Z,19.49
2022-08-07T23:44:52.234Z,19.48
2022-08-07T23:47:29.921Z,19.41
2022-08-07T23:50:36.799Z,19.41
2022-08-07T23:53:22.846Z,19.38
2022-08-07T23:56:21.160Z,19.34
2022-08-07T23:59:00.113Z,19.31
